sensor_id;sensor_type;location;lat;lon;timestamp;temperature;humidity
55369;DHT22;41247;49.736;8.752;2023-07-16T00:01:37;17.90;99.90
55369;DHT22;41247;49.736;8.752;2023-07-16T00:05:18;17.80;99.90
55369;DHT22;41247;49.736;8.752;2023-07-16T00:08:59;17.70;99.90
55369;DHT22;41247;49.736;8.752;2023-07-16T00:12:40;17.70;99.90
55369;DHT22;41247;49.736;8.752;2023-07-16T00:16:21;17.70;99.90
55369;DHT22;41247;49.736;8.752;2023-07-16T00:20:02;17.70;99.90
55369;DHT22;41247;49.736;8.752;2023-07-16T00:23:43;17.70;99.90
55369;DHT22;41247;49.736;8.752;2023-07-16T00:27:24;17.60;99.90
55369;DHT22;41247;49.736;8.752;2023-07-16T00:31:04;17.60;99.90
55369;DHT22;41247;49.736;8.752;2023-07-16T00:34:45;17.50;99.90
55369;DHT22;41247;49.736;8.752;2023-07-16T00:38:26;17.50;99.90
55369;DHT22;41247;49.736;8.752;2023-07-16T00:42:06;17.50;99.90
55369;DHT22;41247;49.736;8.752;2023-07-16T00:45:47;17.50;99.90
55369;DHT22;41247;49.736;8.752;2023-07-16T00:49:28;17.40;99.90
55369;DHT22;41247;49.736;8.752;2023-07-16T00:53:09;17.40;99.90
55369;DHT22;41247;49.736;8.752;2023-07-16T00:56:49;17.40;99.90
55369;DHT22;41247;49.736;8.752;2023-07-16T01:00:39;17.40;99.90
55369;DHT22;41247;49.736;8.752;2023-07-16T01:04:23;17.40;99.90
55369;DHT22;41247;49.736;8.752;2023-07-16T01:08:06;17.40;99.90
55369;DHT22;41247;49.736;8.752;2023-07-16T01:11:49;17.50;99.90
55369;DHT22;41247;49.736;8.752;2023-07-16T01:15:41;17.50;99.90
55369;DHT22;41247;49.736;8.752;2023-07-16T01:19:21;17.50;99.90
55369;DHT22;41247;49.736;8.752;2023-07-16T01:31:40;17.50;99.90
55369;DHT22;41247;49.736;8.752;2023-07-16T01:35:22;17.50;99.90
55369;DHT22;41247;49.736;8.752;2023-07-16T01:39:03;17.50;99.90
55369;DHT22;41247;49.736;8.752;2023-07-16T01:42:44;17.40;99.90
55369;DHT22;41247;49.736;8.752;2023-07-16T01:46:25;17.40;99.90
55369;DHT22;41247;49.736;8.752;2023-07-16T01:50:06;17.40;99.90
55369;DHT22;41247;49.736;8.752;2023-07-16T01:53:47;17.40;99.90
55369;DHT22;41247;49.736;8.752;2023-07-16T01:57:28;17.40;99.90
55369;DHT22;41247;49.736;8.752;2023-07-16T02:01:08;17.30;99.90
55369;DHT22;41247;49.736;8.752;2023-07-16T02:04:55;17.30;99.90
55369;DHT22;41247;49.736;8.752;2023-07-16T02:08:39;17.30;99.90
55369;DHT22;41247;49.736;8.752;2023-07-16T02:12:20;17.20;99.90
55369;DHT22;41247;49.736;8.752;2023-07-16T02:16:00;17.20;99.90
55369;DHT22;41247;49.736;8.752;2023-07-16T02:19:41;17.20;99.90
55369;DHT22;41247;49.736;8.752;2023-07-16T02:23:22;17.10;99.90
55369;DHT22;41247;49.736;8.752;2023-07-16T02:27:02;17.10;99.90
55369;DHT22;41247;49.736;8.752;2023-07-16T02:30:43;17.10;99.90
55369;DHT22;41247;49.736;8.752;2023-07-16T02:34:24;17.10;99.90
55369;DHT22;41247;49.736;8.752;2023-07-16T02:38:04;17.10;99.90
55369;DHT22;41247;49.736;8.752;2023-07-16T02:41:48;17.10;99.90
55369;DHT22;41247;49.736;8.752;2023-07-16T02:45:29;17.10;99.90
55369;DHT22;41247;49.736;8.752;2023-07-16T02:49:12;17.00;99.90
55369;DHT22;41247;49.736;8.752;2023-07-16T02:52:53;17.00;99.90
55369;DHT22;41247;49.736;8.752;2023-07-16T02:56:34;17.00;99.90
55369;DHT22;41247;49.736;8.752;2023-07-16T03:00:15;16.90;99.90
55369;DHT22;41247;49.736;8.752;2023-07-16T03:03:56;16.90;99.90
55369;DHT22;41247;49.736;8.752;2023-07-16T03:07:39;16.90;99.90
55369;DHT22;41247;49.736;8.752;2023-07-16T03:11:20;16.90;99.90
55369;DHT22;41247;49.736;8.752;2023-07-16T03:15:00;16.80;99.90
55369;DHT22;41247;49.736;8.752;2023-07-16T03:18:41;16.80;99.90
55369;DHT22;41247;49.736;8.752;2023-07-16T03:22:21;16.70;99.90
55369;DHT22;41247;49.736;8.752;2023-07-16T03:26:02;16.70;99.90
55369;DHT22;41247;49.736;8.752;2023-07-16T03:29:43;16.70;99.90
55369;DHT22;41247;49.736;8.752;2023-07-16T03:33:23;16.70;99.90
55369;DHT22;41247;49.736;8.752;2023-07-16T03:37:04;16.60;99.90
55369;DHT22;41247;49.736;8.752;2023-07-16T03:40:49;16.60;99.90
55369;DHT22;41247;49.736;8.752;2023-07-16T03:44:30;16.60;99.90
55369;DHT22;41247;49.736;8.752;2023-07-16T03:48:10;16.50;99.90
55369;DHT22;41247;49.736;8.752;2023-07-16T03:51:51;16.50;99.90
55369;DHT22;41247;49.736;8.752;2023-07-16T03:55:31;16.50;99.90
55369;DHT22;41247;49.736;8.752;2023-07-16T03:59:12;16.50;99.90
55369;DHT22;41247;49.736;8.752;2023-07-16T04:02:53;16.40;99.90
55369;DHT22;41247;49.736;8.752;2023-07-16T04:06:33;16.40;99.90
55369;DHT22;41247;49.736;8.752;2023-07-16T04:10:14;16.30;99.90
55369;DHT22;41247;49.736;8.752;2023-07-16T04:13:54;16.20;99.90
55369;DHT22;41247;49.736;8.752;2023-07-16T04:17:35;16.20;99.90
55369;DHT22;41247;49.736;8.752;2023-07-16T04:21:16;16.10;99.90
55369;DHT22;41247;49.736;8.752;2023-07-16T04:24:56;16.00;99.90
55369;DHT22;41247;49.736;8.752;2023-07-16T04:28:37;16.00;99.90
55369;DHT22;41247;49.736;8.752;2023-07-16T04:32:19;15.90;99.90
55369;DHT22;41247;49.736;8.752;2023-07-16T04:36:00;15.80;99.90
55369;DHT22;41247;49.736;8.752;2023-07-16T04:39:40;15.80;99.90
55369;DHT22;41247;49.736;8.752;2023-07-16T04:43:21;15.70;99.90
55369;DHT22;41247;49.736;8.752;2023-07-16T04:47:01;15.70;99.90
55369;DHT22;41247;49.736;8.752;2023-07-16T04:50:42;15.70;99.90
55369;DHT22;41247;49.736;8.752;2023-07-16T04:54:23;15.60;99.90
55369;DHT22;41247;49.736;8.752;2023-07-16T05:03:13;15.60;99.90
55369;DHT22;41247;49.736;8.752;2023-07-16T05:07:32;15.60;99.90
55369;DHT22;41247;49.736;8.752;2023-07-16T05:11:14;15.60;99.90
55369;DHT22;41247;49.736;8.752;2023-07-16T05:14:54;15.50;99.90
55369;DHT22;41247;49.736;8.752;2023-07-16T05:18:35;15.50;99.90
55369;DHT22;41247;49.736;8.752;2023-07-16T05:22:16;15.50;99.90
55369;DHT22;41247;49.736;8.752;2023-07-16T05:25:56;15.60;99.90
55369;DHT22;41247;49.736;8.752;2023-07-16T05:30:09;15.70;99.90
55369;DHT22;41247;49.736;8.752;2023-07-16T05:34:12;15.90;99.90
55369;DHT22;41247;49.736;8.752;2023-07-16T05:37:53;16.00;99.90
55369;DHT22;41247;49.736;8.752;2023-07-16T05:50:36;16.30;99.90
55369;DHT22;41247;49.736;8.752;2023-07-16T05:59:16;16.50;99.90
55369;DHT22;41247;49.736;8.752;2023-07-16T06:02:56;16.50;99.90
55369;DHT22;41247;49.736;8.752;2023-07-16T06:06:37;16.50;99.90
55369;DHT22;41247;49.736;8.752;2023-07-16T06:10:49;16.50;99.90
55369;DHT22;41247;49.736;8.752;2023-07-16T06:14:58;16.40;99.90
55369;DHT22;41247;49.736;8.752;2023-07-16T06:24:16;16.40;99.90
55369;DHT22;41247;49.736;8.752;2023-07-16T06:37:38;17.10;99.90
55369;DHT22;41247;49.736;8.752;2023-07-16T06:41:44;17.30;99.90
55369;DHT22;41247;49.736;8.752;2023-07-16T06:45:39;17.50;99.90
55369;DHT22;41247;49.736;8.752;2023-07-16T06:53:45;17.40;99.90
55369;DHT22;41247;49.736;8.752;2023-07-16T06:57:26;17.30;99.90
55369;DHT22;41247;49.736;8.752;2023-07-16T07:01:08;17.30;99.90
55369;DHT22;41247;49.736;8.752;2023-07-16T07:04:55;17.40;99.90
55369;DHT22;41247;49.736;8.752;2023-07-16T07:08:36;17.50;99.90
55369;DHT22;41247;49.736;8.752;2023-07-16T07:12:19;17.50;99.90
55369;DHT22;41247;49.736;8.752;2023-07-16T07:16:00;17.60;99.90
55369;DHT22;41247;49.736;8.752;2023-07-16T07:19:41;18.10;99.90
55369;DHT22;41247;49.736;8.752;2023-07-16T07:23:23;18.40;99.90
55369;DHT22;41247;49.736;8.752;2023-07-16T07:27:04;18.60;99.90
55369;DHT22;41247;49.736;8.752;2023-07-16T07:30:46;18.10;99.90
55369;DHT22;41247;49.736;8.752;2023-07-16T07:34:26;18.10;99.90
55369;DHT22;41247;49.736;8.752;2023-07-16T07:38:07;18.30;99.90
55369;DHT22;41247;49.736;8.752;2023-07-16T07:41:47;18.40;99.90
55369;DHT22;41247;49.736;8.752;2023-07-16T07:45:28;18.60;99.90
55369;DHT22;41247;49.736;8.752;2023-07-16T07:49:09;18.70;99.90
55369;DHT22;41247;49.736;8.752;2023-07-16T07:52:49;18.50;99.90
55369;DHT22;41247;49.736;8.752;2023-07-16T07:56:30;18.40;99.90
55369;DHT22;41247;49.736;8.752;2023-07-16T08:00:14;18.60;99.90
55369;DHT22;41247;49.736;8.752;2023-07-16T08:03:55;18.80;99.90
55369;DHT22;41247;49.736;8.752;2023-07-16T08:07:36;19.20;99.90
55369;DHT22;41247;49.736;8.752;2023-07-16T08:11:16;19.50;99.90
55369;DHT22;41247;49.736;8.752;2023-07-16T08:14:57;19.40;99.90
55369;DHT22;41247;49.736;8.752;2023-07-16T08:18:38;19.80;99.90
55369;DHT22;41247;49.736;8.752;2023-07-16T08:22:42;19.80;99.90
55369;DHT22;41247;49.736;8.752;2023-07-16T08:26:29;19.80;99.90
55369;DHT22;41247;49.736;8.752;2023-07-16T08:30:20;19.60;99.90
55369;DHT22;41247;49.736;8.752;2023-07-16T08:34:04;20.00;99.90
55369;DHT22;41247;49.736;8.752;2023-07-16T08:37:47;20.10;99.90
55369;DHT22;41247;49.736;8.752;2023-07-16T08:41:28;20.40;99.90
55369;DHT22;41247;49.736;8.752;2023-07-16T08:45:13;20.40;99.90
55369;DHT22;41247;49.736;8.752;2023-07-16T08:48:56;20.30;99.90
55369;DHT22;41247;49.736;8.752;2023-07-16T08:52:37;20.50;99.90
55369;DHT22;41247;49.736;8.752;2023-07-16T08:56:19;20.90;99.90
55369;DHT22;41247;49.736;8.752;2023-07-16T09:00:01;21.00;99.90
55369;DHT22;41247;49.736;8.752;2023-07-16T09:03:41;20.80;99.90
55369;DHT22;41247;49.736;8.752;2023-07-16T09:07:22;20.10;99.90
55369;DHT22;41247;49.736;8.752;2023-07-16T09:11:03;19.60;99.90
55369;DHT22;41247;49.736;8.752;2023-07-16T09:14:43;19.40;99.90
55369;DHT22;41247;49.736;8.752;2023-07-16T09:18:25;19.70;99.90
55369;DHT22;41247;49.736;8.752;2023-07-16T09:22:08;19.70;99.90
55369;DHT22;41247;49.736;8.752;2023-07-16T09:25:49;19.70;99.90
55369;DHT22;41247;49.736;8.752;2023-07-16T09:29:30;19.80;99.90
55369;DHT22;41247;49.736;8.752;2023-07-16T09:33:13;19.80;99.90
55369;DHT22;41247;49.736;8.752;2023-07-16T09:36:56;19.90;99.90
55369;DHT22;41247;49.736;8.752;2023-07-16T09:40:38;19.90;99.90
55369;DHT22;41247;49.736;8.752;2023-07-16T09:44:20;20.20;99.90
55369;DHT22;41247;49.736;8.752;2023-07-16T09:48:01;21.20;99.90
55369;DHT22;41247;49.736;8.752;2023-07-16T09:51:43;21.10;99.90
55369;DHT22;41247;49.736;8.752;2023-07-16T09:55:25;21.40;99.90
55369;DHT22;41247;49.736;8.752;2023-07-16T09:59:12;21.70;99.90
55369;DHT22;41247;49.736;8.752;2023-07-16T10:02:55;21.70;99.90
55369;DHT22;41247;49.736;8.752;2023-07-16T10:06:35;21.70;99.90
55369;DHT22;41247;49.736;8.752;2023-07-16T10:10:16;21.70;99.90
55369;DHT22;41247;49.736;8.752;2023-07-16T10:13:57;22.10;99.90
55369;DHT22;41247;49.736;8.752;2023-07-16T10:17:37;21.90;99.90
55369;DHT22;41247;49.736;8.752;2023-07-16T10:21:22;22.10;99.90
55369;DHT22;41247;49.736;8.752;2023-07-16T10:28:58;22.60;99.90
55369;DHT22;41247;49.736;8.752;2023-07-16T10:32:39;23.00;99.90
55369;DHT22;41247;49.736;8.752;2023-07-16T10:36:20;23.20;99.90
55369;DHT22;41247;49.736;8.752;2023-07-16T10:40:02;22.80;99.90
55369;DHT22;41247;49.736;8.752;2023-07-16T10:43:43;22.30;99.90
55369;DHT22;41247;49.736;8.752;2023-07-16T10:47:29;22.80;99.90
55369;DHT22;41247;49.736;8.752;2023-07-16T10:51:16;23.20;99.90
55369;DHT22;41247;49.736;8.752;2023-07-16T10:54:57;23.40;99.90
55369;DHT22;41247;49.736;8.752;2023-07-16T10:58:38;23.70;99.90
55369;DHT22;41247;49.736;8.752;2023-07-16T11:02:21;23.80;99.90
55369;DHT22;41247;49.736;8.752;2023-07-16T11:06:09;24.20;99.90
55369;DHT22;41247;49.736;8.752;2023-07-16T11:09:53;24.50;99.90
55369;DHT22;41247;49.736;8.752;2023-07-16T11:13:36;24.70;99.90
55369;DHT22;41247;49.736;8.752;2023-07-16T11:17:17;24.90;99.90
55369;DHT22;41247;49.736;8.752;2023-07-16T11:20:59;25.10;99.90
55369;DHT22;41247;49.736;8.752;2023-07-16T11:24:45;25.20;99.90
55369;DHT22;41247;49.736;8.752;2023-07-16T11:28:38;24.90;99.90
55369;DHT22;41247;49.736;8.752;2023-07-16T11:32:29;24.90;99.90
55369;DHT22;41247;49.736;8.752;2023-07-16T11:36:12;24.80;99.90
55369;DHT22;41247;49.736;8.752;2023-07-16T11:40:02;24.20;99.90
55369;DHT22;41247;49.736;8.752;2023-07-16T11:43:44;23.70;99.90
55369;DHT22;41247;49.736;8.752;2023-07-16T11:47:25;23.60;99.90
55369;DHT22;41247;49.736;8.752;2023-07-16T11:51:06;23.80;99.90
55369;DHT22;41247;49.736;8.752;2023-07-16T11:54:47;23.10;99.90
55369;DHT22;41247;49.736;8.752;2023-07-16T11:58:28;22.80;99.90
55369;DHT22;41247;49.736;8.752;2023-07-16T12:02:09;23.30;99.90
55369;DHT22;41247;49.736;8.752;2023-07-16T12:05:49;23.80;99.90
55369;DHT22;41247;49.736;8.752;2023-07-16T12:09:30;23.80;99.90
55369;DHT22;41247;49.736;8.752;2023-07-16T12:13:11;24.20;99.90
55369;DHT22;41247;49.736;8.752;2023-07-16T12:16:51;24.60;99.90
55369;DHT22;41247;49.736;8.752;2023-07-16T12:20:34;25.10;99.90
55369;DHT22;41247;49.736;8.752;2023-07-16T12:24:15;25.40;99.90
55369;DHT22;41247;49.736;8.752;2023-07-16T12:27:55;25.50;99.90
55369;DHT22;41247;49.736;8.752;2023-07-16T12:31:36;25.60;99.90
55369;DHT22;41247;49.736;8.752;2023-07-16T12:35:17;25.50;99.90
55369;DHT22;41247;49.736;8.752;2023-07-16T12:38:57;25.70;99.90
55369;DHT22;41247;49.736;8.752;2023-07-16T12:42:38;26.10;99.90
55369;DHT22;41247;49.736;8.752;2023-07-16T12:46:19;25.80;99.90
55369;DHT22;41247;49.736;8.752;2023-07-16T12:50:02;25.80;99.90
55369;DHT22;41247;49.736;8.752;2023-07-16T12:53:45;26.00;99.90
55369;DHT22;41247;49.736;8.752;2023-07-16T12:57:25;26.00;99.90
55369;DHT22;41247;49.736;8.752;2023-07-16T13:01:06;26.40;99.90
55369;DHT22;41247;49.736;8.752;2023-07-16T13:04:46;26.50;99.90
55369;DHT22;41247;49.736;8.752;2023-07-16T13:08:27;26.80;99.90
55369;DHT22;41247;49.736;8.752;2023-07-16T13:12:08;26.90;99.90
55369;DHT22;41247;49.736;8.752;2023-07-16T13:15:48;27.00;99.90
55369;DHT22;41247;49.736;8.752;2023-07-16T13:19:30;26.80;99.90
55369;DHT22;41247;49.736;8.752;2023-07-16T13:23:10;26.80;99.90
55369;DHT22;41247;49.736;8.752;2023-07-16T13:26:51;26.80;99.90
55369;DHT22;41247;49.736;8.752;2023-07-16T13:30:32;26.80;99.90
55369;DHT22;41247;49.736;8.752;2023-07-16T13:34:13;26.90;99.90
55369;DHT22;41247;49.736;8.752;2023-07-16T13:37:53;27.00;99.90
55369;DHT22;41247;49.736;8.752;2023-07-16T13:41:34;26.60;99.90
55369;DHT22;41247;49.736;8.752;2023-07-16T13:45:14;26.90;99.90
55369;DHT22;41247;49.736;8.752;2023-07-16T13:48:55;27.30;99.90
55369;DHT22;41247;49.736;8.752;2023-07-16T13:52:36;27.20;99.90
55369;DHT22;41247;49.736;8.752;2023-07-16T13:56:17;27.20;99.90
55369;DHT22;41247;49.736;8.752;2023-07-16T13:59:57;27.40;99.90
55369;DHT22;41247;49.736;8.752;2023-07-16T14:03:38;27.50;99.90
55369;DHT22;41247;49.736;8.752;2023-07-16T14:07:18;27.40;99.90
55369;DHT22;41247;49.736;8.752;2023-07-16T14:11:00;27.30;99.90
55369;DHT22;41247;49.736;8.752;2023-07-16T14:14:40;26.90;99.90
55369;DHT22;41247;49.736;8.752;2023-07-16T14:18:21;27.20;99.90
55369;DHT22;41247;49.736;8.752;2023-07-16T14:22:02;27.30;99.90
55369;DHT22;41247;49.736;8.752;2023-07-16T14:25:43;27.30;99.90
55369;DHT22;41247;49.736;8.752;2023-07-16T14:29:24;27.50;99.90
55369;DHT22;41247;49.736;8.752;2023-07-16T14:33:04;27.60;99.90
55369;DHT22;41247;49.736;8.752;2023-07-16T14:36:45;28.00;99.90
55369;DHT22;41247;49.736;8.752;2023-07-16T14:40:26;28.10;99.90
55369;DHT22;41247;49.736;8.752;2023-07-16T14:44:06;27.80;99.90
55369;DHT22;41247;49.736;8.752;2023-07-16T14:47:54;27.90;99.90
55369;DHT22;41247;49.736;8.752;2023-07-16T14:51:34;28.20;99.90
55369;DHT22;41247;49.736;8.752;2023-07-16T14:55:15;28.30;99.90
55369;DHT22;41247;49.736;8.752;2023-07-16T14:58:55;28.40;99.90
55369;DHT22;41247;49.736;8.752;2023-07-16T15:02:36;28.40;99.90
55369;DHT22;41247;49.736;8.752;2023-07-16T15:06:17;28.40;99.90
55369;DHT22;41247;49.736;8.752;2023-07-16T15:09:58;28.40;99.90
55369;DHT22;41247;49.736;8.752;2023-07-16T15:13:38;28.60;99.90
55369;DHT22;41247;49.736;8.752;2023-07-16T15:17:19;28.80;99.90
55369;DHT22;41247;49.736;8.752;2023-07-16T15:21:00;28.90;99.90
55369;DHT22;41247;49.736;8.752;2023-07-16T15:24:41;29.00;99.90
55369;DHT22;41247;49.736;8.752;2023-07-16T15:28:22;29.30;99.90
55369;DHT22;41247;49.736;8.752;2023-07-16T15:32:02;29.50;99.90
55369;DHT22;41247;49.736;8.752;2023-07-16T15:35:44;29.50;99.90
55369;DHT22;41247;49.736;8.752;2023-07-16T15:39:26;29.40;99.90
55369;DHT22;41247;49.736;8.752;2023-07-16T15:43:07;29.30;99.90
55369;DHT22;41247;49.736;8.752;2023-07-16T15:46:48;28.80;99.90
55369;DHT22;41247;49.736;8.752;2023-07-16T15:50:29;28.30;99.90
55369;DHT22;41247;49.736;8.752;2023-07-16T15:54:09;27.70;99.90
55369;DHT22;41247;49.736;8.752;2023-07-16T15:57:50;27.30;99.90
55369;DHT22;41247;49.736;8.752;2023-07-16T16:01:30;27.00;99.90
55369;DHT22;41247;49.736;8.752;2023-07-16T16:05:11;26.70;99.90
55369;DHT22;41247;49.736;8.752;2023-07-16T16:08:53;26.40;99.90
55369;DHT22;41247;49.736;8.752;2023-07-16T16:12:33;26.70;99.90
55369;DHT22;41247;49.736;8.752;2023-07-16T16:16:14;27.20;99.90
55369;DHT22;41247;49.736;8.752;2023-07-16T16:19:54;27.20;99.90
55369;DHT22;41247;49.736;8.752;2023-07-16T16:23:35;27.10;99.90
55369;DHT22;41247;49.736;8.752;2023-07-16T16:27:16;26.80;99.90
55369;DHT22;41247;49.736;8.752;2023-07-16T16:30:56;26.70;99.90
55369;DHT22;41247;49.736;8.752;2023-07-16T16:34:37;26.10;99.90
55369;DHT22;41247;49.736;8.752;2023-07-16T16:38:17;25.70;99.90
55369;DHT22;41247;49.736;8.752;2023-07-16T16:41:58;25.60;99.90
55369;DHT22;41247;49.736;8.752;2023-07-16T16:45:39;25.60;99.90
55369;DHT22;41247;49.736;8.752;2023-07-16T16:49:19;25.50;99.90
55369;DHT22;41247;49.736;8.752;2023-07-16T16:53:00;25.40;99.90
55369;DHT22;41247;49.736;8.752;2023-07-16T16:56:40;25.30;99.90
55369;DHT22;41247;49.736;8.752;2023-07-16T17:00:21;25.10;99.90
55369;DHT22;41247;49.736;8.752;2023-07-16T17:04:02;25.00;99.90
55369;DHT22;41247;49.736;8.752;2023-07-16T17:07:42;25.10;99.90
55369;DHT22;41247;49.736;8.752;2023-07-16T17:11:23;25.00;99.90
55369;DHT22;41247;49.736;8.752;2023-07-16T17:15:04;24.90;99.90
55369;DHT22;41247;49.736;8.752;2023-07-16T17:18:45;24.90;99.90
55369;DHT22;41247;49.736;8.752;2023-07-16T17:22:26;24.70;99.90
55369;DHT22;41247;49.736;8.752;2023-07-16T17:26:06;24.70;99.90
55369;DHT22;41247;49.736;8.752;2023-07-16T17:29:47;24.70;99.90
55369;DHT22;41247;49.736;8.752;2023-07-16T17:33:28;24.40;99.90
55369;DHT22;41247;49.736;8.752;2023-07-16T17:37:09;24.30;99.90
55369;DHT22;41247;49.736;8.752;2023-07-16T17:40:49;24.10;99.90
55369;DHT22;41247;49.736;8.752;2023-07-16T17:44:30;24.00;99.90
55369;DHT22;41247;49.736;8.752;2023-07-16T17:48:11;23.80;99.90
55369;DHT22;41247;49.736;8.752;2023-07-16T17:51:52;23.70;99.90
55369;DHT22;41247;49.736;8.752;2023-07-16T17:55:33;23.60;99.90
55369;DHT22;41247;49.736;8.752;2023-07-16T17:59:14;23.60;99.90
55369;DHT22;41247;49.736;8.752;2023-07-16T18:02:54;23.40;99.90
55369;DHT22;41247;49.736;8.752;2023-07-16T18:06:35;23.30;99.90
55369;DHT22;41247;49.736;8.752;2023-07-16T18:10:15;23.20;99.90
55369;DHT22;41247;49.736;8.752;2023-07-16T18:13:56;23.10;99.90
55369;DHT22;41247;49.736;8.752;2023-07-16T18:17:37;23.00;99.90
55369;DHT22;41247;49.736;8.752;2023-07-16T18:21:17;22.80;99.90
55369;DHT22;41247;49.736;8.752;2023-07-16T18:24:59;22.70;99.90
55369;DHT22;41247;49.736;8.752;2023-07-16T18:28:39;22.60;99.90
55369;DHT22;41247;49.736;8.752;2023-07-16T18:32:20;22.40;99.90
55369;DHT22;41247;49.736;8.752;2023-07-16T18:36:01;22.30;99.90
55369;DHT22;41247;49.736;8.752;2023-07-16T18:39:41;22.20;99.90
55369;DHT22;41247;49.736;8.752;2023-07-16T18:43:22;22.10;99.90
55369;DHT22;41247;49.736;8.752;2023-07-16T18:47:02;22.00;99.90
55369;DHT22;41247;49.736;8.752;2023-07-16T18:50:43;21.90;99.90
55369;DHT22;41247;49.736;8.752;2023-07-16T18:54:24;21.80;99.90
55369;DHT22;41247;49.736;8.752;2023-07-16T18:58:04;21.70;99.90
55369;DHT22;41247;49.736;8.752;2023-07-16T19:01:45;21.60;99.90
55369;DHT22;41247;49.736;8.752;2023-07-16T19:05:25;21.50;99.90
55369;DHT22;41247;49.736;8.752;2023-07-16T19:09:06;21.30;99.90
55369;DHT22;41247;49.736;8.752;2023-07-16T19:12:47;21.00;99.90
55369;DHT22;41247;49.736;8.752;2023-07-16T19:16:33;20.70;99.90
55369;DHT22;41247;49.736;8.752;2023-07-16T19:20:14;20.40;99.90
55369;DHT22;41247;49.736;8.752;2023-07-16T19:23:54;20.10;99.90
55369;DHT22;41247;49.736;8.752;2023-07-16T19:27:35;19.90;99.90
55369;DHT22;41247;49.736;8.752;2023-07-16T19:31:16;19.60;99.90
55369;DHT22;41247;49.736;8.752;2023-07-16T19:34:56;19.30;99.90
55369;DHT22;41247;49.736;8.752;2023-07-16T19:38:40;19.20;99.90
55369;DHT22;41247;49.736;8.752;2023-07-16T19:42:20;19.00;99.90
55369;DHT22;41247;49.736;8.752;2023-07-16T19:46:02;18.80;99.90
55369;DHT22;41247;49.736;8.752;2023-07-16T19:49:43;18.60;99.90
55369;DHT22;41247;49.736;8.752;2023-07-16T19:53:24;18.40;99.90
55369;DHT22;41247;49.736;8.752;2023-07-16T19:57:05;18.30;99.90
55369;DHT22;41247;49.736;8.752;2023-07-16T20:00:46;18.10;99.90
55369;DHT22;41247;49.736;8.752;2023-07-16T20:04:27;18.00;99.90
55369;DHT22;41247;49.736;8.752;2023-07-16T20:08:08;17.90;99.90
55369;DHT22;41247;49.736;8.752;2023-07-16T20:11:49;17.70;99.90
55369;DHT22;41247;49.736;8.752;2023-07-16T20:15:30;17.60;99.90
55369;DHT22;41247;49.736;8.752;2023-07-16T20:19:14;17.50;99.90
55369;DHT22;41247;49.736;8.752;2023-07-16T20:22:54;17.40;99.90
55369;DHT22;41247;49.736;8.752;2023-07-16T20:26:35;17.30;99.90
55369;DHT22;41247;49.736;8.752;2023-07-16T20:30:16;17.10;99.90
55369;DHT22;41247;49.736;8.752;2023-07-16T20:33:57;17.00;99.90
55369;DHT22;41247;49.736;8.752;2023-07-16T20:37:37;16.90;99.90
55369;DHT22;41247;49.736;8.752;2023-07-16T20:41:18;16.80;99.90
55369;DHT22;41247;49.736;8.752;2023-07-16T20:45:13;16.70;99.90
55369;DHT22;41247;49.736;8.752;2023-07-16T20:49:01;16.60;99.90
55369;DHT22;41247;49.736;8.752;2023-07-16T20:52:46;16.50;99.90
55369;DHT22;41247;49.736;8.752;2023-07-16T20:56:29;16.40;99.90
55369;DHT22;41247;49.736;8.752;2023-07-16T21:00:11;16.30;99.90
55369;DHT22;41247;49.736;8.752;2023-07-16T21:03:53;16.20;99.90
55369;DHT22;41247;49.736;8.752;2023-07-16T21:07:34;16.20;99.90
55369;DHT22;41247;49.736;8.752;2023-07-16T21:11:15;16.10;99.90
55369;DHT22;41247;49.736;8.752;2023-07-16T21:14:56;16.00;99.90
55369;DHT22;41247;49.736;8.752;2023-07-16T21:18:36;15.90;99.90
55369;DHT22;41247;49.736;8.752;2023-07-16T21:22:24;15.80;99.90
55369;DHT22;41247;49.736;8.752;2023-07-16T21:26:04;15.80;99.90
55369;DHT22;41247;49.736;8.752;2023-07-16T21:29:45;15.70;99.90
55369;DHT22;41247;49.736;8.752;2023-07-16T21:33:25;15.70;99.90
55369;DHT22;41247;49.736;8.752;2023-07-16T21:37:06;15.60;99.90
55369;DHT22;41247;49.736;8.752;2023-07-16T21:40:47;15.60;99.90
55369;DHT22;41247;49.736;8.752;2023-07-16T21:44:27;15.50;99.90
55369;DHT22;41247;49.736;8.752;2023-07-16T21:48:09;15.50;99.90
55369;DHT22;41247;49.736;8.752;2023-07-16T21:51:50;15.40;99.90
55369;DHT22;41247;49.736;8.752;2023-07-16T21:55:30;15.40;99.90
55369;DHT22;41247;49.736;8.752;2023-07-16T21:59:11;15.30;99.90
55369;DHT22;41247;49.736;8.752;2023-07-16T22:02:51;15.30;99.90
55369;DHT22;41247;49.736;8.752;2023-07-16T22:06:32;15.30;99.90
55369;DHT22;41247;49.736;8.752;2023-07-16T22:10:14;15.20;99.90
55369;DHT22;41247;49.736;8.752;2023-07-16T22:13:55;15.20;99.90
55369;DHT22;41247;49.736;8.752;2023-07-16T22:17:36;15.20;99.90
55369;DHT22;41247;49.736;8.752;2023-07-16T22:21:17;15.10;99.90
55369;DHT22;41247;49.736;8.752;2023-07-16T22:24:57;15.10;99.90
55369;DHT22;41247;49.736;8.752;2023-07-16T22:28:38;15.10;99.90
55369;DHT22;41247;49.736;8.752;2023-07-16T22:32:18;15.10;99.90
55369;DHT22;41247;49.736;8.752;2023-07-16T22:35:59;15.10;99.90
55369;DHT22;41247;49.736;8.752;2023-07-16T22:39:40;15.10;99.90
55369;DHT22;41247;49.736;8.752;2023-07-16T22:43:20;15.00;99.90
55369;DHT22;41247;49.736;8.752;2023-07-16T22:47:01;15.00;99.90
55369;DHT22;41247;49.736;8.752;2023-07-16T22:50:41;15.00;99.90
55369;DHT22;41247;49.736;8.752;2023-07-16T22:54:22;15.00;99.90
55369;DHT22;41247;49.736;8.752;2023-07-16T22:58:03;15.00;99.90
55369;DHT22;41247;49.736;8.752;2023-07-16T23:01:44;14.90;99.90
55369;DHT22;41247;49.736;8.752;2023-07-16T23:05:38;14.90;99.90
55369;DHT22;41247;49.736;8.752;2023-07-16T23:09:18;14.90;99.90
55369;DHT22;41247;49.736;8.752;2023-07-16T23:12:59;14.90;99.90
55369;DHT22;41247;49.736;8.752;2023-07-16T23:16:40;14.90;99.90
55369;DHT22;41247;49.736;8.752;2023-07-16T23:20:20;14.90;99.90
55369;DHT22;41247;49.736;8.752;2023-07-16T23:24:01;14.90;99.90
55369;DHT22;41247;49.736;8.752;2023-07-16T23:27:42;14.90;99.90
55369;DHT22;41247;49.736;8.752;2023-07-16T23:31:22;14.90;99.90
55369;DHT22;41247;49.736;8.752;2023-07-16T23:35:03;14.80;99.90
55369;DHT22;41247;49.736;8.752;2023-07-16T23:38:44;14.90;99.90
55369;DHT22;41247;49.736;8.752;2023-07-16T23:42:24;14.90;99.90
55369;DHT22;41247;49.736;8.752;2023-07-16T23:46:05;14.90;99.90
55369;DHT22;41247;49.736;8.752;2023-07-16T23:49:50;14.90;99.90
55369;DHT22;41247;49.736;8.752;2023-07-16T23:53:30;14.90;99.90
55369;DHT22;41247;49.736;8.752;2023-07-16T23:57:11;14.90;99.90
